• Join FlightAware (Why Join?)
  • Login
  • US Flag 
04:06PM EDT


 

Airport Tracker/Info


-or-


 

Live Flight TrackerFlight Track Log ✈ N662US ✈ 16-Jun-2013 ✈ VTBS / BKK - RJAA / NRT

Flight Track Log - Related Links

Times and Time Zones

All times are in EDT time to prevent confusion due to time zone crossing. See the N662US flight status page for this flight to view local times or setup timezone preferences in your user account.

Time Position Orientation Groundspeed Altitude Reporting Facility
EDT Latitude Longitude Course Direction KTS MPH feet Rate Location/Type
06:56PM 13.7614 100.8492 51° Northeast  Level Estimated
06:57PM 13.8417 100.9512 51° Northeast  Level Estimated
06:58PM 13.9219 101.0532 51° Northeast  Level Estimated
06:59PM 14.0021 101.1553 51° Northeast  Level Estimated
07:00PM 14.0822 101.2575 51° Northeast  Level Estimated
07:01PM 14.1623 101.3598 51° Northeast  Level Estimated
07:02PM 14.2423 101.4621 51° Northeast  Level Estimated
07:02PM 13.7230 100.7480 51° Northeast 173 199 1,300  Level FlightAware
07:02PM 13.7490 100.7550 15° North 194 223 1,900 960 Climbing FlightAware
07:03PM 13.7720 100.7610 14° North 219 252 2,200 840 Climbing FlightAware
07:03PM 13.7980 100.7970 53° Northeast 256 295 2,900 1,380 Climbing FlightAware
07:04PM 13.8110 100.8470 75° East 284 327 4,100 2,220 Climbing FlightAware
07:05PM 13.8260 100.8860 68° East 291 335 5,500 2,700 Climbing FlightAware
07:05PM 13.8450 100.9410 70° East 296 341 7,500 2,640 Climbing FlightAware
07:05PM 13.8480 100.9480 66° East 299 344 7,700 2,520 Climbing FlightAware
07:06PM 13.8660 101.0010 71° East 305 351 9,300 2,520 Climbing FlightAware
07:07PM 13.8870 101.0600 70° East 320 368 10,900 1,860 Climbing FlightAware
07:07PM 13.9060 101.1150 70° East 350 403 11,800 1,440 Climbing FlightAware
07:08PM 13.9330 101.1920 70° East 388 447 13,000 2,040 Climbing FlightAware
07:09PM 13.9600 101.2690 70° East 402 463 14,700 2,340 Climbing FlightAware
07:10PM 13.9870 101.3460 70° East 415 478 16,300 2,220 Climbing FlightAware
07:10PM 14.0150 101.4270 70° East 423 487 18,000 2,340 Climbing FlightAware
07:11PM 14.0530 101.5360 70° East 440 506 19,800 2,040 Climbing FlightAware
07:12PM 14.0790 101.6120 71° East 448 516 21,100 1,920 Climbing FlightAware
07:13PM 14.1150 101.7160 70° East 456 525 22,700 1,920 Climbing FlightAware
07:13PM 14.1440 101.7980 70° East 463 533 23,900 1,620 Climbing FlightAware
07:14PM 14.1750 101.8870 70° East 472 543 25,000 1,500 Climbing FlightAware
07:15PM 14.2060 101.9760 70° East 479 551 26,100 1,620 Climbing FlightAware
07:15PM 14.2370 102.0690 71° East 482 555 27,300 1,560 Climbing FlightAware
07:16PM 14.2670 102.1560 70° East 486 559 28,300 1,380 Climbing FlightAware
07:17PM 14.2960 102.2400 70° East 490 564 29,100 1,500 Climbing FlightAware
07:17PM 14.3310 102.3410 70° East 487 560 30,400 1,560 Climbing FlightAware
07:18PM 14.3640 102.4380 71° East 487 560 31,500 1,320 Climbing FlightAware
07:19PM 14.3960 102.5300 70° East 491 565 32,300 1,140 Climbing FlightAware
07:19PM 14.4270 102.6230 71° East 493 567 33,100 540 Climbing FlightAware
07:20PM 14.4590 102.7170 71° East 494 568 33,100  Level FlightAware
07:21PM 14.4910 102.8100 70° East 494 568 33,100  Level FlightAware
07:22PM 14.5210 102.8990 71° East 492 566 33,100  Level FlightAware
07:22PM 14.5530 102.9920 70° East 490 564 33,100  Level FlightAware
07:23PM 14.5840 103.0850 71° East 488 562 33,100  Level FlightAware
07:24PM 14.6170 103.1810 70° East 488 562 33,100  Level FlightAware
07:24PM 14.6460 103.2670 71° East 488 562 33,100  Level FlightAware
07:25PM 14.6800 103.3670 71° East 488 562 33,100  Level FlightAware
07:26PM 14.7110 103.4590 71° East 491 565 33,100  Level FlightAware
07:26PM 14.7420 103.5520 71° East 490 564 33,100  Level FlightAware
07:27PM 14.7720 103.6410 71° East 490 564 33,100  Level FlightAware
07:28PM 14.8040 103.7360 71° East 489 563 33,100  Level FlightAware
07:29PM 14.8360 103.8310 71° East 489 563 33,100  Level FlightAware
07:29PM 14.8680 103.9290 71° East 489 563 33,100  Level FlightAware
07:30PM 14.8940 104.0040 70° East 489 563 33,100  Level FlightAware
07:31PM 14.9250 104.0960 71° East 488 562 33,100  Level FlightAware
07:31PM 14.9600 104.2020 71° East 488 562 33,100  Level FlightAware
07:32PM 14.9890 104.2910 71° East 488 562 33,100  Level FlightAware
07:33PM 15.0170 104.3920 74° East 487 560 33,100  Level FlightAware
07:33PM 15.0350 104.4810 78° East 486 559 33,100  Level FlightAware
07:34PM 15.0540 104.5760 78° East 486 559 33,100  Level FlightAware
07:35PM 15.0720 104.6670 78° East 485 558 33,100  Level FlightAware
07:36PM 15.0930 104.7670 78° East 484 557 33,100  Level FlightAware
07:36PM 15.1120 104.8580 78° East 485 558 33,100  Level FlightAware
07:37PM 15.1350 104.9570 76° East 488 562 33,100  Level FlightAware
07:38PM 15.1660 105.0580 72° East 490 564 33,100  Level FlightAware
07:39PM 15.2010 105.1740 73° East 490 564 33,100  Level FlightAware
07:39PM 15.2260 105.2670 74° East 490 564 33,100  Level FlightAware
07:40PM 15.2610 105.3870 73° East 490 564 33,100  Level FlightAware
07:41PM 15.2810 105.4550 73° East 490 564 33,100  Level FlightAware
07:42PM 15.3160 105.5900 75° East 491 565 33,100  Level FlightAware
07:42PM 15.3420 105.6820 74° East 491 565 33,100  Level FlightAware
07:43PM 15.3710 105.7820 73° East 491 565 33,100  Level FlightAware
07:44PM 15.3960 105.8670 73° East 491 565 33,100  Level FlightAware
07:44PM 15.4160 105.9360 73° East 491 565 33,100  Level FlightAware
07:45PM 15.4620 106.1020 74° East 491 565 33,100  Level FlightAware
07:46PM 15.4830 106.1730 73° East 491 565 33,100  Level FlightAware
07:47PM 15.5130 106.2810 74° East 490 564 33,100  Level FlightAware
07:48PM 15.5480 106.4010 73° East 491 565 33,100  Level FlightAware
07:49PM 15.5830 106.5250 74° East 491 565 33,100  Level FlightAware
07:50PM 15.6290 106.6880 74° East 491 565 33,100  Level FlightAware
07:50PM 15.6500 106.7590 73° East 491 565 33,100  Level FlightAware
07:51PM 15.6710 106.8280 72° East 491 565 33,100  Level FlightAware
07:52PM 15.6980 106.9220 73° East 491 565 33,100  Level FlightAware
07:53PM 15.7200 106.9970 73° East 491 565 33,100  Level FlightAware
07:53PM 15.7410 107.0680 73° East 491 565 33,100  Level FlightAware
07:54PM 15.7680 107.1600 73° East 491 565 33,100  Level FlightAware
07:55PM 15.7890 107.2310 73° East 491 565 33,100  Level FlightAware
07:55PM 15.8110 107.3060 73° East 491 565 33,100  Level FlightAware
07:56PM 15.8380 107.3980 73° East 491 565 33,100  Level FlightAware
07:57PM 15.8640 107.4860 73° East 491 565 33,100  Level FlightAware
07:57PM 15.8850 107.5550 72° East 491 565 33,100  Level FlightAware
07:59PM 15.9270 107.6990 73° East 491 565 33,100  Level FlightAware
08:01PM 16.0829 107.8889 49° Northeast  Level Estimated
08:02PM 16.1656 107.9899 50° Northeast  Level Estimated
08:03PM 16.2483 108.0909 50° Northeast  Level Estimated
08:04PM 16.3309 108.1921 50° Northeast  Level Estimated
08:05PM 16.4135 108.2933 50° Northeast  Level Estimated
08:06PM 16.4960 108.3946 50° Northeast  Level Estimated
08:07PM 16.5785 108.4960 50° Northeast  Level Estimated
08:08PM 16.6610 108.5975 50° Northeast  Level Estimated
08:09PM 16.7433 108.6990 50° Northeast  Level Estimated
08:10PM 16.8257 108.8007 50° Northeast  Level Estimated
08:11PM 16.9079 108.9024 50° Northeast  Level Estimated
08:12PM 16.9902 109.0042 50° Northeast  Level Estimated
08:13PM 17.0724 109.1061 50° Northeast  Level Estimated
08:14PM 17.1545 109.2082 50° Northeast  Level Estimated
08:15PM 17.2366 109.3103 50° Northeast  Level Estimated
08:16PM 17.3186 109.4125 50° Northeast  Level Estimated
08:17PM 17.4006 109.5147 50° Northeast  Level Estimated
08:18PM 17.4825 109.6171 50° Northeast  Level Estimated
08:19PM 17.5644 109.7196 50° Northeast  Level Estimated
08:20PM 17.6462 109.8221 50° Northeast  Level Estimated
08:21PM 17.7279 109.9248 50° Northeast  Level Estimated
08:22PM 17.8097 110.0275 50° Northeast  Level Estimated
08:23PM 17.8913 110.1303 50° Northeast  Level Estimated
08:24PM 17.9729 110.2333 50° Northeast  Level Estimated
08:25PM 18.0545 110.3363 50° Northeast  Level Estimated
08:26PM 18.1360 110.4394 50° Northeast  Level Estimated
08:27PM 18.2174 110.5426 50° Northeast  Level Estimated
08:28PM 18.2988 110.6460 50° Northeast  Level Estimated
08:29PM 18.3801 110.7494 50° Northeast  Level Estimated
08:30PM 18.4614 110.8529 50° Northeast  Level Estimated
08:31PM 18.5426 110.9565 50° Northeast  Level Estimated
08:32PM 18.6238 111.0602 50° Northeast  Level Estimated
08:33PM 18.7048 111.1640 50° Northeast  Level Estimated
08:34PM 18.7859 111.2679 51° Northeast  Level Estimated
08:35PM 18.8669 111.3719 51° Northeast  Level Estimated
08:36PM 18.9478 111.4761 51° Northeast  Level Estimated
08:37PM 19.0287 111.5803 51° Northeast  Level Estimated
08:38PM 19.1095 111.6846 51° Northeast  Level Estimated
08:39PM 19.1903 111.7890 51° Northeast  Level Estimated
08:40PM 19.2710 111.8935 51° Northeast  Level Estimated
08:41PM 19.3516 111.9981 51° Northeast  Level Estimated
08:42PM 19.4322 112.1028 51° Northeast  Level Estimated
08:43PM 19.5127 112.2076 51° Northeast  Level Estimated
08:44PM 19.5932 112.3126 51° Northeast  Level Estimated
08:45PM 19.6736 112.4176 51° Northeast  Level Estimated
08:46PM 19.7539 112.5228 51° Northeast  Level Estimated
08:47PM 19.8342 112.6280 51° Northeast  Level Estimated
08:48PM 19.9144 112.7333 51° Northeast  Level Estimated
08:49PM 19.9945 112.8388 51° Northeast  Level Estimated
08:50PM 20.0746 112.9444 51° Northeast  Level Estimated
08:51PM 20.1546 113.0500 51° Northeast  Level Estimated
08:52PM 20.2346 113.1558 51° Northeast  Level Estimated
08:53PM 20.3145 113.2617 51° Northeast  Level Estimated
08:54PM 20.3943 113.3677 51° Northeast  Level Estimated
08:55PM 20.4741 113.4738 51° Northeast  Level Estimated
08:56PM 20.5536 113.5797 51° Northeast  Level Estimated
08:57PM 20.6329 113.6857 51° Northeast  Level Estimated
08:58PM 20.7123 113.7918 51° Northeast  Level Estimated
08:59PM 20.7915 113.8981 51° Northeast  Level Estimated
09:00PM 20.8708 114.0044 51° Northeast  Level Estimated
09:01PM 20.9499 114.1109 51° Northeast  Level Estimated
09:02PM 21.0290 114.2174 52° Northeast  Level Estimated
09:03PM 21.1080 114.3241 52° Northeast  Level Estimated
09:04PM 21.1869 114.4309 52° Northeast  Level Estimated
09:05PM 21.2658 114.5378 52° Northeast  Level Estimated
09:06PM 21.3446 114.6448 52° Northeast  Level Estimated
09:07PM 21.4233 114.7519 52° Northeast  Level Estimated
09:08PM 21.5020 114.8592 52° Northeast  Level Estimated
09:09PM 21.5806 114.9666 52° Northeast  Level Estimated
09:10PM 21.6591 115.0740 52° Northeast  Level Estimated
09:11PM 21.7376 115.1816 52° Northeast  Level Estimated
09:12PM 21.8160 115.2894 52° Northeast  Level Estimated
09:13PM 21.8943 115.3972 52° Northeast  Level Estimated
09:14PM 21.9725 115.5051 52° Northeast  Level Estimated
09:15PM 22.0507 115.6132 52° Northeast  Level Estimated
09:16PM 22.1288 115.7214 52° Northeast  Level Estimated
09:17PM 22.2069 115.8297 52° Northeast  Level Estimated
09:18PM 22.2848 115.9381 52° Northeast  Level Estimated
09:19PM 22.3627 116.0467 52° Northeast  Level Estimated
09:20PM 22.4401 116.1547 52° Northeast  Level Estimated
09:20PM 21.2710 117.9000 52° Northeast 483 556 33,100  Level FlightAware
09:20PM 21.2920 117.9800 74° East 33,100  Level FlightAware
09:21PM 21.3170 118.0790 75° East 477 549 33,100  Level FlightAware
09:22PM 21.3400 118.1670 74° East 475 547 33,100  Level FlightAware
09:22PM 21.3640 118.2580 74° East 473 544 33,100  Level FlightAware
09:23PM 21.3810 118.3230 74° East 473 544 33,100  Level FlightAware
09:24PM 21.4130 118.4560 75° East 33,100  Level FlightAware
09:25PM 21.4350 118.5620 77° East 476 548 33,100  Level FlightAware
09:25PM 21.4640 118.6980 77° East 480 552 33,100  Level FlightAware
09:26PM 21.4870 118.8010 76° East 482 555 33,100  Level FlightAware
09:27PM 21.5040 118.8800 77° East 483 556 33,100  Level FlightAware
09:28PM 21.5270 118.9830 76° East 483 556 33,100  Level FlightAware
09:28PM 21.5470 119.0790 77° East 483 556 33,100  Level FlightAware
09:29PM 21.5680 119.1720 76° East 482 555 33,100 180 Level FlightAware
09:30PM 21.5900 119.2770 77° East 482 555 33,400 840 Climbing FlightAware
09:30PM 21.6090 119.3650 77° East 482 555 34,300 1,200 Climbing FlightAware
09:31PM 21.6320 119.4760 77° East 487 560 35,100 540 Climbing FlightAware
09:32PM 21.6520 119.5690 77° East 494 568 35,100  Level FlightAware
09:32PM 21.6710 119.6570 77° East 493 567 35,100  Level FlightAware
09:33PM 21.6980 119.7840 77° East 491 565 35,100  Level FlightAware
09:34PM 21.7150 119.8650 77° East 490 564 35,100  Level FlightAware
09:34PM 21.7360 119.9670 77° East 490 564 35,100  Level FlightAware
09:35PM 21.7610 120.0830 77° East 489 563 35,100  Level FlightAware
09:36PM 21.7840 120.1820 76° East 488 562 35,100  Level FlightAware
09:37PM 21.8060 120.2860 77° East 488 562 35,100  Level FlightAware
09:37PM 21.8280 120.3840 76° East 490 564 35,100  Level FlightAware
09:38PM 21.8480 120.4740 77° East 491 565 35,100  Level FlightAware
09:39PM 21.8720 120.5860 77° East 492 566 35,100  Level FlightAware
09:39PM 21.8910 120.6720 77° East 491 565 35,100  Level FlightAware
09:40PM 21.9210 120.8070 77° East 491 565 35,100  Level FlightAware
09:41PM 21.9600 120.8920 64° Northeast 486 559 35,100  Level FlightAware
09:42PM 22.0070 120.9660 56° Northeast 485 558 35,100  Level FlightAware
09:42PM 22.0640 121.0500 54° Northeast 485 558 35,100  Level FlightAware
09:43PM 22.1250 121.1430 55° Northeast 485 558 35,100  Level FlightAware
09:44PM 22.1770 121.2200 54° Northeast 486 559 35,100  Level FlightAware
09:45PM 22.2320 121.3050 55° Northeast 484 557 35,100  Level FlightAware
09:45PM 22.3100 121.4260 55° Northeast 483 556 35,100  Level FlightAware
09:46PM 22.3620 121.5050 55° Northeast 482 555 35,100  Level FlightAware
09:47PM 22.4100 121.5780 55° Northeast 482 555 35,100  Level FlightAware
09:48PM 22.4700 121.6710 55° Northeast 481 554 35,100  Level FlightAware
09:48PM 22.5250 121.7560 55° Northeast 481 554 35,100  Level FlightAware
09:49PM 22.5710 121.8270 55° Northeast 482 555 35,100  Level FlightAware
09:50PM 22.6230 121.9080 55° Northeast 482 555 35,100  Level FlightAware
09:50PM 22.6870 122.0050 54° Northeast 483 556 35,100  Level FlightAware
09:51PM 22.7350 122.0810 56° Northeast 483 556 35,100  Level FlightAware
09:52PM 22.7950 122.1740 55° Northeast 484 557 35,100  Level FlightAware
09:52PM 22.8390 122.2400 54° Northeast 484 557 35,100  Level FlightAware
09:53PM 22.8800 122.3040 55° Northeast 484 557 35,100  Level FlightAware
09:54PM 22.9320 122.3860 55° Northeast 484 557 35,100  Level FlightAware
09:54PM 22.9720 122.4470 55° Northeast 484 557 35,100  Level FlightAware
09:55PM 23.0150 122.5140 55° Northeast 484 557 35,100  Level FlightAware
09:56PM 23.0680 122.5960 55° Northeast 484 557 35,100  Level FlightAware
09:57PM 23.1080 122.6580 55° Northeast 484 557 35,100  Level FlightAware
09:57PM 23.1610 122.7400 55° Northeast 484 557 35,100  Level FlightAware
09:58PM 23.2000 122.8010 55° Northeast 484 557 35,100  Level FlightAware
09:59PM 23.2520 122.8820 55° Northeast 484 557 35,100  Level FlightAware
09:59PM 23.2920 122.9430 54° Northeast 484 557 35,100  Level FlightAware
10:00PM 23.3400 123.0180 55° Northeast 484 557 35,100  Level FlightAware
10:01PM 23.3930 123.1010 55° Northeast 484 557 35,100  Level FlightAware
10:02PM 23.4330 123.1640 55° Northeast 484 557 35,100  Level FlightAware
10:02PM 23.4730 123.2250 54° Northeast 484 557 35,100  Level FlightAware
10:05PM 23.6801 123.4634 46° Northeast  Level Estimated
10:06PM 23.7669 123.5637 47° Northeast  Level Estimated
10:07PM 23.8536 123.6641 47° Northeast  Level Estimated
10:08PM 23.9402 123.7646 47° Northeast  Level Estimated
10:09PM 24.0268 123.8653 47° Northeast  Level Estimated
10:10PM 24.1133 123.9661 47° Northeast  Level Estimated
10:11PM 24.1998 124.0670 47° Northeast  Level Estimated
10:12PM 24.2862 124.1681 47° Northeast  Level Estimated
10:13PM 24.3725 124.2693 47° Northeast  Level Estimated
10:14PM 24.4588 124.3706 47° Northeast  Level Estimated
10:15PM 24.5450 124.4721 47° Northeast  Level Estimated
10:16PM 24.6311 124.5738 47° Northeast  Level Estimated
10:17PM 24.7171 124.6755 47° Northeast  Level Estimated
10:18PM 24.8031 124.7774 47° Northeast  Level Estimated
10:19PM 24.8890 124.8795 47° Northeast  Level Estimated
10:20PM 24.9749 124.9817 47° Northeast  Level Estimated
10:21PM 25.0606 125.0840 47° Northeast  Level Estimated
10:22PM 25.1463 125.1865 47° Northeast  Level Estimated
10:23PM 25.2320 125.2891 47° Northeast  Level Estimated
10:24PM 25.3175 125.3919 47° Northeast  Level Estimated
10:25PM 25.4030 125.4948 47° Northeast  Level Estimated
10:26PM 25.4884 125.5978 47° Northeast  Level Estimated
10:27PM 25.5738 125.7010 47° Northeast  Level Estimated
10:28PM 25.6590 125.8044 48° Northeast  Level Estimated
10:29PM 25.7442 125.9079 48° Northeast  Level Estimated
10:30PM 25.8294 126.0116 48° Northeast  Level Estimated
10:31PM 25.9144 126.1153 48° Northeast  Level Estimated
10:32PM 25.9994 126.2193 48° Northeast  Level Estimated
10:32PM 26.0670 126.9800 48° Northeast 501 577 35,100  Level FlightAware
10:32PM 26.1230 127.0590 52° Northeast 499 574 35,100  Level FlightAware
10:33PM 26.1810 127.1420 52° Northeast 499 574 35,100  Level FlightAware
10:34PM 26.2430 127.2290 52° Northeast 500 575 35,100  Level FlightAware
10:35PM 26.3030 127.3140 52° Northeast 499 574 35,100  Level FlightAware
10:35PM 26.3680 127.3990 50° Northeast 500 575 35,100  Level FlightAware
10:36PM 26.4290 127.4820 51° Northeast 498 573 35,100  Level FlightAware
10:37PM 26.4940 127.5710 51° Northeast 497 572 35,100  Level FlightAware
10:37PM 26.5520 127.6480 50° Northeast 496 571 35,100  Level FlightAware
10:38PM 26.6100 127.7280 51° Northeast 497 572 35,100  Level FlightAware
10:39PM 26.6770 127.8190 51° Northeast 499 574 35,100  Level FlightAware
10:39PM 26.7320 127.8930 50° Northeast 501 577 35,100  Level FlightAware
10:40PM 26.7920 127.9760 51° Northeast 503 579 35,100  Level FlightAware
10:41PM 26.8610 128.0710 51° Northeast 507 583 35,100  Level FlightAware
10:42PM 26.9430 128.1830 51° Northeast 508 585 35,100  Level FlightAware
10:42PM 26.9960 128.2550 50° Northeast 508 585 35,100  Level FlightAware
10:43PM 27.0640 128.3510 51° Northeast 508 585 35,100  Level FlightAware
10:44PM 27.1130 128.4180 51° Northeast 509 586 35,100  Level FlightAware
10:45PM 27.1860 128.5190 51° Northeast 509 586 35,100  Level FlightAware
10:45PM 27.2540 128.6120 51° Northeast 509 586 35,100  Level FlightAware
10:46PM 27.2990 128.6750 51° Northeast 509 586 35,100  Level FlightAware
10:47PM 27.3460 128.7400 51° Northeast 509 586 35,100  Level FlightAware
10:47PM 27.4060 128.8240 51° Northeast 509 586 35,100  Level FlightAware
10:48PM 27.4520 128.8870 51° Northeast 509 586 35,100  Level FlightAware
10:49PM 27.5120 128.9720 51° Northeast 509 586 35,100  Level FlightAware
10:49PM 27.5580 129.0350 51° Northeast 509 586 35,100  Level FlightAware
10:52PM 27.7424 129.2569 47° Northeast  Level Estimated
10:53PM 27.8287 129.3611 47° Northeast  Level Estimated
10:53PM 27.9390 129.6440 47° Northeast 35,100  Level FlightAware
10:54PM 27.9149 129.4656 47° Northeast  Level Estimated
10:56PM 28.1253 129.8679 47° Northeast  Level Estimated
10:57PM 28.2118 129.9723 47° Northeast  Level Estimated
10:58PM 28.2982 130.0769 47° Northeast  Level Estimated
10:59PM 28.3846 130.1816 47° Northeast  Level Estimated
11:00PM 28.4709 130.2865 47° Northeast  Level Estimated
11:01PM 28.5571 130.3916 47° Northeast  Level Estimated
11:02PM 28.6432 130.4969 47° Northeast  Level Estimated
11:03PM 28.7292 130.6023 47° Northeast  Level Estimated
11:04PM 28.8152 130.7079 47° Northeast  Level Estimated
11:05PM 28.9011 130.8137 47° Northeast  Level Estimated
11:06PM 28.9869 130.9196 47° Northeast  Level Estimated
11:07PM 29.0726 131.0258 47° Northeast  Level Estimated
11:08PM 29.1582 131.1320 47° Northeast  Level Estimated
11:09PM 29.2437 131.2385 47° Northeast  Level Estimated
11:10PM 29.3292 131.3452 47° Northeast  Level Estimated
11:11PM 29.4145 131.4520 47° Northeast  Level Estimated
11:12PM 29.4998 131.5591 48° Northeast  Level Estimated
11:13PM 29.5850 131.6662 48° Northeast  Level Estimated
11:14PM 29.6701 131.7736 48° Northeast  Level Estimated
11:15PM 29.7552 131.8812 48° Northeast  Level Estimated
11:16PM 29.8401 131.9889 48° Northeast  Level Estimated
11:17PM 29.9249 132.0969 48° Northeast  Level Estimated
11:18PM 30.0097 132.2050 48° Northeast  Level Estimated
11:19PM 30.0944 132.3133 48° Northeast  Level Estimated
11:20PM 30.1790 132.4218 48° Northeast  Level Estimated
11:21PM 30.2635 132.5304 48° Northeast  Level Estimated
11:22PM 30.3479 132.6393 48° Northeast  Level Estimated
11:23PM 30.4322 132.7483 48° Northeast  Level Estimated
11:24PM 30.5164 132.8575 48° Northeast  Level Estimated
11:25PM 30.6005 132.9670 48° Northeast  Level Estimated
11:26PM 30.6846 133.0766 48° Northeast  Level Estimated
11:27PM 30.7685 133.1864 48° Northeast  Level Estimated
11:28PM 30.8524 133.2964 48° Northeast  Level Estimated
11:29PM 30.9362 133.4066 48° Northeast  Level Estimated
11:30PM 31.0198 133.5169 48° Northeast  Level Estimated
11:31PM 31.1034 133.6275 49° Northeast  Level Estimated
11:32PM 31.1869 133.7383 49° Northeast  Level Estimated
11:33PM 31.2703 133.8492 49° Northeast  Level Estimated
11:34PM 31.3536 133.9604 49° Northeast  Level Estimated
11:35PM 31.4368 134.0718 49° Northeast  Level Estimated
11:36PM 31.5199 134.1833 49° Northeast  Level Estimated
11:37PM 31.6029 134.2951 49° Northeast  Level Estimated
11:37PM 31.8470 135.3630 49° Northeast 548 631 35,100  Level FlightAware
11:37PM 31.9140 135.4760 55° Northeast 550 633 35,100  Level FlightAware
11:38PM 31.9680 135.5700 56° Northeast 550 633 35,100  Level FlightAware
11:39PM 32.0320 135.6820 56° Northeast 549 632 35,100  Level FlightAware
11:39PM 32.0890 135.7810 56° Northeast 548 631 35,100  Level FlightAware
11:40PM 32.1500 135.8880 56° Northeast 548 631 35,100  Level FlightAware
11:41PM 32.2070 135.9860 55° Northeast 537 618 35,100  Level FlightAware
11:42PM 32.2690 136.0960 56° Northeast 534 615 35,100  Level FlightAware
11:42PM 32.3130 136.1740 56° Northeast 532 612 35,100  Level FlightAware
11:43PM 32.3860 136.3030 56° Northeast 530 610 35,100  Level FlightAware
11:44PM 32.4420 136.4000 56° Northeast 528 608 35,100  Level FlightAware
11:44PM 32.5020 136.5070 56° Northeast 530 610 35,100  Level FlightAware
11:45PM 32.5490 136.5910 56° Northeast 529 609 35,100  Level FlightAware
11:46PM 32.6130 136.7050 56° Northeast 528 608 35,100  Level FlightAware
11:46PM 32.6720 136.8110 57° Northeast 528 608 35,100  Level FlightAware
11:47PM 32.7370 136.9270 56° Northeast 528 608 35,100  Level FlightAware
11:48PM 32.7960 137.0340 57° Northeast 528 608 35,100  Level FlightAware
11:49PM 32.8520 137.1350 57° Northeast 525 604 35,100  Level FlightAware
11:49PM 32.9080 137.2360 57° Northeast 517 595 35,100  Level FlightAware
11:50PM 32.9720 137.3520 57° Northeast 517 595 35,100  Level FlightAware
11:51PM 33.0240 137.4450 56° Northeast 517 595 35,100  Level FlightAware
11:52PM 33.0780 137.5440 57° Northeast 519 597 35,100  Level FlightAware
11:52PM 33.1320 137.6430 57° Northeast 521 600 35,100  Level FlightAware
11:53PM 33.1940 137.7580 57° Northeast 522 601 35,100  Level FlightAware
11:54PM 33.2620 137.8830 57° Northeast 524 603 35,100  Level FlightAware
11:55PM 33.3220 137.9910 56° Northeast 524 603 35,100  Level FlightAware
11:56PM 33.3940 138.1260 57° Northeast 523 602 35,100  Level FlightAware
11:56PM 33.4430 138.2170 57° Northeast 521 600 35,100  Level FlightAware
11:57PM 33.5050 138.3340 58° Northeast 521 600 35,100  Level FlightAware
11:58PM 33.5820 138.4790 57° Northeast 521 600 35,100  Level FlightAware
11:59PM 33.6420 138.5890 57° Northeast 522 601 35,100  Level FlightAware
11:59PM 33.6930 138.6860 58° Northeast 523 602 35,100  Level FlightAware
12:00AM 33.7380 138.7690 57° Northeast 522 601 35,100  Level FlightAware
12:01AM 33.7950 138.8780 58° Northeast 520 598 35,100  Level FlightAware
12:01AM 33.8560 138.9930 57° Northeast 522 601 35,100  Level FlightAware
12:02AM 33.8990 139.0740 57° Northeast 519 597 35,100  Level FlightAware
12:03AM 33.9700 139.2110 58° Northeast 518 596 35,100  Level FlightAware
12:03AM 34.0210 139.3080 58° Northeast 516 594 35,100  Level FlightAware
12:04AM 34.0720 139.4060 58° Northeast 515 593 35,100  Level FlightAware
12:05AM 34.1220 139.5030 58° Northeast 515 593 35,100  Level FlightAware
12:06AM 34.1800 139.6120 57° Northeast 513 590 35,100  Level FlightAware
12:06AM 34.2370 139.7210 58° Northeast 513 590 35,100 -660 Level FlightAware
12:07AM 34.2860 139.8150 58° Northeast 494 568 34,200 -1,920 Descending FlightAware
12:08AM 34.3390 139.9110 56° Northeast 487 560 32,600 -1,920 Descending FlightAware
12:08AM 34.3880 139.9700 45° Northeast 472 543 31,800 -2,520 Descending FlightAware
12:09AM 34.4770 140.0500 37° Northeast 29,300 -3,120 Descending FlightAware
12:10AM 34.5280 140.0930 35° Northeast 479 551 28,000 -2,820 Descending FlightAware
12:10AM 34.6370 140.1890 36° Northeast 481 554 25,400 -2,640 Descending FlightAware
12:11AM 34.7040 140.2490 36° Northeast 474 545 23,800 -2,520 Descending FlightAware
12:12AM 34.7730 140.3100 36° Northeast 460 529 22,100 -2,820 Descending FlightAware
12:12AM 34.8420 140.3710 36° Northeast 445 512 20,100 -2,940 Descending FlightAware
12:13AM 34.9240 140.4430 36° Northeast 437 503 17,800 -2,580 Descending FlightAware
12:14AM 34.9890 140.5020 37° Northeast 418 481 16,300 -2,100 Descending FlightAware
12:15AM 35.0560 140.5620 36° Northeast 402 463 14,800 -2,160 Descending FlightAware
12:15AM 35.1110 140.6030 31° Northeast 380 437 13,500 -2,340 Descending FlightAware
12:16AM 35.1450 140.6130 14° North 368 423 12,700 -2,100 Descending FlightAware
12:16AM 35.1780 140.6090 354° North 343 395 12,100 -1,500 Descending FlightAware
12:17AM 35.2490 140.5850 345° North 304 350 11,000 -1,620 Descending FlightAware
12:17AM 35.3010 140.5670 344° North 283 326 9,800 -1,740 Descending FlightAware
12:18AM 35.3180 140.5610 344° North 272 313 9,500 -1,080 Descending FlightAware
12:18AM 35.3480 140.5530 348° North 257 296 9,100 -1,440 Descending FlightAware
12:19AM 35.3840 140.5550 North 244 281 8,200 -1,920 Descending FlightAware
12:19AM 35.4190 140.5580 North 230 265 7,200 -1,920 Descending FlightAware
12:20AM 35.4480 140.5510 349° North 233 268 6,300 -1,500 Descending FlightAware
12:20AM 35.4740 140.5370 336° Northwest 237 273 5,800 -1,200 Descending FlightAware
12:20AM 35.5030 140.5300 349° North 229 264 5,300 -1,080 Descending FlightAware
12:21AM 35.5310 140.5220 347° North 227 261 4,900 -1,020 Descending FlightAware
12:21AM 35.5630 140.5130 347° North 196 226 4,300 -1,080 Descending FlightAware
12:22AM 35.5860 140.5050 344° North 182 209 3,900 -1,080 Descending FlightAware
12:22AM 35.6080 140.4880 328° Northwest 169 194 3,300 -1,080 Descending FlightAware
12:23AM 35.6260 140.4750 330° Northwest 167 192 2,900 -840 Descending FlightAware
12:23AM 35.6430 140.4630 330° Northwest 172 198 2,600 -900 Descending FlightAware
12:24AM 35.6550 140.4550 332° Northwest 172 198 2,300 -1,020 Descending FlightAware
12:24AM 35.6770 140.4390 329° Northwest 157 181 1,800 -900 Descending FlightAware
12:25AM 35.6960 140.4250 329° Northwest 168 193 1,400 -900 Descending FlightAware
12:25AM 35.7150 140.4120 331° Northwest 162 186 1,000 -840 Descending FlightAware
12:25AM 35.7290 140.4010 327° Northwest 155 178 700 -360 Descending FlightAware
12:26AM 35.7420 140.3920 331° Northwest 155 178 700  Level FlightAware
12:28AM 35.7647 140.3864 349° North  Level Estimated
12:29AM 35.7647 140.3864 338° Northwest  Level Estimated
12:30AM 35.7647 140.3864 338° Northwest  Level Estimated
12:31AM 35.7647 140.3864 338° Northwest  Level Estimated